Time;durP1;ratioP1;P1;durP2;ratioP2;P2;SDS_P1;SDS_P2;PMS_P1;PMS_P2;Temp;Humidity;BMP_temperature;BMP_pressure;BME280_temperature;BME280_humidity;BME280_pressure;Samples;Min_cycle;Max_cycle;Signal;HPM_P1;HPM_P2
2022/10/31 00:00:19;;;;;;;20.20;10.67;;;;;;;13.05;94.21;101995.19;5124726;28;20040;-47
2022/10/31 00:02:44;;;;;;;18.27;11.02;;;;;;;13.03;93.75;101994.44;5124379;28;20301;-49
2022/10/31 00:05:09;;;;;;;19.35;11.75;;;;;;;13.00;94.73;102002.66;5124538;28;20011;-50
2022/10/31 00:07:35;;;;;;;18.13;10.63;;;;;;;12.98;94.51;101996.56;5124929;28;20028;-48
2022/10/31 00:10:00;;;;;;;18.20;11.43;;;;;;;12.95;94.79;101994.13;5137856;28;20016;-51
2022/10/31 00:12:26;;;;;;;19.27;11.20;;;;;;;12.94;95.03;101995.09;5124843;28;20023;-50
2022/10/31 00:14:51;;;;;;;20.02;11.18;;;;;;;12.90;94.94;101993.59;5124116;28;20019;-52
2022/10/31 00:17:16;;;;;;;19.10;11.30;;;;;;;12.86;94.86;101997.44;5106883;28;20023;-51
2022/10/31 00:19:42;;;;;;;19.25;12.25;;;;;;;12.85;95.27;101991.22;5137013;28;20345;-48
2022/10/31 00:22:07;;;;;;;18.10;11.70;;;;;;;12.82;95.71;101994.09;5124718;28;20012;-51
2022/10/31 00:24:32;;;;;;;19.70;12.02;;;;;;;12.78;94.81;101996.13;5124315;28;20290;-49
2022/10/31 00:26:57;;;;;;;17.33;11.23;;;;;;;12.79;95.36;102002.31;5124202;28;20031;-49
2022/10/31 00:29:23;;;;;;;20.90;11.33;;;;;;;12.77;94.97;101998.88;5124496;28;20270;-49
2022/10/31 00:31:48;;;;;;;17.17;10.97;;;;;;;12.76;95.57;101994.53;5124472;28;20278;-50
2022/10/31 00:34:13;;;;;;;15.40;11.63;;;;;;;12.73;95.43;101997.41;5123794;28;20281;-51
2022/10/31 00:36:38;;;;;;;18.10;11.30;;;;;;;12.71;96.06;101997.50;5124213;28;20286;-50
2022/10/31 00:39:04;;;;;;;16.87;10.83;;;;;;;12.70;96.26;101992.25;5124289;28;20024;-48
2022/10/31 00:41:29;;;;;;;19.83;11.82;;;;;;;12.66;96.32;101983.63;5124346;28;20337;-49
2022/10/31 00:43:55;;;;;;;16.17;11.27;;;;;;;12.64;96.44;101982.88;5121069;28;20016;-48
2022/10/31 00:46:20;;;;;;;15.02;10.80;;;;;;;12.65;96.48;101986.38;5121025;28;20024;-49
2022/10/31 00:48:45;;;;;;;16.65;10.63;;;;;;;12.63;96.47;101994.50;5120224;28;20024;-49
2022/10/31 00:51:10;;;;;;;16.00;10.70;;;;;;;12.62;96.33;101990.09;5121037;28;20050;-50
2022/10/31 00:53:36;;;;;;;15.77;11.15;;;;;;;12.59;95.71;101977.84;5121124;28;20051;-49
2022/10/31 00:56:01;;;;;;;17.50;11.13;;;;;;;12.58;96.05;101985.94;5121098;28;20016;-50
2022/10/31 00:58:26;;;;;;;14.15;10.98;;;;;;;12.57;96.08;101986.91;5120205;28;20034;-49
2022/10/31 01:00:55;;;;;;;18.27;10.47;;;;;;;12.55;95.84;101991.47;5120980;28;20020;-51
2022/10/31 01:03:29;;;;;;;16.42;10.77;;;;;;;12.53;95.68;101998.72;5120225;28;20263;-48
2022/10/31 01:06:10;;;;;;;16.27;11.18;;;;;;;12.50;96.50;101981.13;5103342;28;20012;-51
2022/10/31 01:08:36;;;;;;;17.48;10.70;;;;;;;12.47;96.96;101973.31;5120249;28;20012;-50
2022/10/31 01:11:08;;;;;;;16.00;11.52;;;;;;;12.50;96.28;101974.94;5120689;28;20027;-52
2022/10/31 01:13:34;;;;;;;18.27;11.18;;;;;;;12.46;96.63;101963.63;5120524;28;20030;-51
2022/10/31 01:16:00;;;;;;;18.83;11.82;;;;;;;12.44;96.49;101954.03;5120299;28;20028;-52
2022/10/31 01:18:26;;;;;;;19.33;10.88;;;;;;;12.39;95.88;101962.34;5120340;28;20028;-48
2022/10/31 01:21:19;;;;;;;18.67;11.20;;;;;;;12.44;96.05;101965.56;5108162;28;20111;-51
2022/10/31 01:23:45;;;;;;;15.23;10.95;;;;;;;12.36;96.50;101966.06;5108808;28;20043;-48
2022/10/31 01:26:25;;;;;;;16.50;11.25;;;;;;;12.37;96.58;101966.91;5119942;28;20051;-53
2022/10/31 01:28:54;;;;;;;14.45;11.38;;;;;;;12.31;96.30;101968.19;5120297;28;20034;-47
2022/10/31 01:31:21;;;;;;;17.85;11.57;;;;;;;12.29;96.54;101978.09;5120205;28;20027;-47
2022/10/31 01:33:47;;;;;;;16.35;10.90;;;;;;;12.29;96.81;101971.88;5120231;28;20020;-48
2022/10/31 01:36:30;;;;;;;15.07;11.73;;;;;;;12.31;96.36;101980.66;5119972;28;20020;-50
2022/10/31 01:39:01;;;;;;;16.27;11.20;;;;;;;12.24;96.03;101984.66;5120777;28;20028;-48
2022/10/31 01:41:29;;;;;;;17.00;11.27;;;;;;;12.27;96.62;101982.63;5119803;28;20020;-47
2022/10/31 01:44:00;;;;;;;17.63;11.67;;;;;;;12.22;96.41;101976.75;5120012;28;20016;-49
2022/10/31 01:46:30;;;;;;;13.82;10.50;;;;;;;12.22;96.02;101979.41;5102109;28;20024;-48
2022/10/31 01:48:58;;;;;;;19.02;11.23;;;;;;;12.16;96.35;101971.84;5120063;28;20032;-49
2022/10/31 01:51:33;;;;;;;21.33;12.02;;;;;;;12.13;96.20;101974.72;5112384;28;20035;-48
2022/10/31 01:54:05;;;;;;;15.35;12.25;;;;;;;12.12;96.55;101978.31;5118828;28;20036;-49
2022/10/31 01:56:34;;;;;;;17.08;11.95;;;;;;;12.06;96.78;101970.72;5117658;28;20084;-48
2022/10/31 01:59:02;;;;;;;19.88;11.90;;;;;;;12.02;96.50;101972.72;5119467;28;20015;-48
2022/10/31 02:01:28;;;;;;;20.30;12.57;;;;;;;12.03;97.20;101969.13;5118999;28;20028;-48
2022/10/31 02:03:55;;;;;;;16.73;12.55;;;;;;;12.02;97.17;101973.59;5119681;28;20012;-52
2022/10/31 02:06:53;;;;;;;22.23;13.38;;;;;;;12.03;97.85;101963.81;5119463;28;20016;-49
2022/10/31 02:09:23;;;;;;;19.55;12.98;;;;;;;12.00;97.69;101964.84;5118882;28;20039;-47
2022/10/31 02:11:52;;;;;;;17.67;12.23;;;;;;;11.96;97.46;101959.84;5101183;28;20023;-48
2022/10/31 02:14:18;;;;;;;18.88;12.73;;;;;;;11.95;97.74;101958.97;5117703;28;20024;-51
2022/10/31 02:16:43;;;;;;;21.95;12.85;;;;;;;11.92;97.68;101958.31;5118923;28;20020;-50
2022/10/31 02:19:13;;;;;;;17.10;12.82;;;;;;;11.88;98.07;101960.28;5119343;28;20055;-50
2022/10/31 02:21:56;;;;;;;16.33;12.60;;;;;;;11.88;97.78;101956.78;5119283;28;20016;-48
2022/10/31 02:24:36;;;;;;;17.60;11.38;;;;;;;11.89;97.38;101961.13;5118891;28;20008;-48
2022/10/31 02:27:25;;;;;;;17.48;11.95;;;;;;;11.85;97.10;101961.31;5101495;28;20024;-48
2022/10/31 02:30:03;;;;;;;18.25;13.05;;;;;;;11.81;96.97;101962.50;5132634;28;20015;-48
2022/10/31 02:32:52;;;;;;;16.83;11.65;;;;;;;11.83;96.85;101962.38;5116785;28;20009;-48
2022/10/31 02:35:41;;;;;;;14.75;11.63;;;;;;;11.75;96.24;101959.38;5099408;28;20042;-48
2022/10/31 02:38:42;;;;;;;18.65;12.00;;;;;;;11.73;95.65;101955.94;5116837;28;20008;-48
2022/10/31 02:41:31;;;;;;;17.85;11.65;;;;;;;11.69;96.22;101951.75;5118358;28;20056;-48
2022/10/31 02:44:05;;;;;;;16.55;11.40;;;;;;;11.65;96.29;101954.59;5118988;28;20016;-48
2022/10/31 02:46:54;;;;;;;19.13;12.23;;;;;;;11.65;96.59;101959.94;5118813;28;20027;-49
2022/10/31 02:49:38;;;;;;;16.38;12.88;;;;;;;11.61;96.20;101952.28;5105120;28;20056;-48
2022/10/31 02:52:14;;;;;;;18.80;12.05;;;;;;;11.57;96.22;101956.91;5118181;28;20014;-48
2022/10/31 02:54:40;;;;;;;18.30;12.07;;;;;;;11.52;96.70;101952.84;5118632;28;20008;-47
2022/10/31 02:57:07;;;;;;;18.70;11.40;;;;;;;11.53;97.13;101957.22;5131706;28;20012;-49
2022/10/31 02:59:35;;;;;;;17.95;11.50;;;;;;;11.51;97.45;101959.09;5118604;28;20020;-50
2022/10/31 03:02:36;;;;;;;17.40;11.73;;;;;;;11.51;97.31;101956.44;5116785;28;20507;-48
2022/10/31 03:05:13;;;;;;;16.20;11.77;;;;;;;11.48;98.44;101960.16;5106479;28;20058;-49
2022/10/31 03:07:43;;;;;;;19.70;12.43;;;;;;;11.48;99.14;101957.50;5117649;28;20031;-49
2022/10/31 03:10:37;;;;;;;18.95;12.00;;;;;;;11.44;99.28;101951.53;5114825;28;20015;-49
2022/10/31 03:13:11;;;;;;;13.85;11.02;;;;;;;11.45;98.50;101957.69;5118322;28;20065;-50
2022/10/31 03:15:53;;;;;;;17.55;11.20;;;;;;;11.46;98.89;101960.25;5118285;28;20079;-49
2022/10/31 03:18:48;;;;;;;17.80;11.85;;;;;;;11.45;98.60;101953.22;5118112;28;20036;-48
2022/10/31 03:21:16;;;;;;;15.77;12.00;;;;;;;11.42;98.23;101957.88;5113765;28;20036;-50
2022/10/31 03:23:44;;;;;;;18.38;10.98;;;;;;;11.42;98.43;101955.22;5117792;28;20036;-51
2022/10/31 03:26:12;;;;;;;16.60;10.82;;;;;;;11.38;98.18;101949.22;5117968;28;20032;-48
2022/10/31 03:28:46;;;;;;;20.10;11.73;;;;;;;11.36;97.91;101953.81;5117746;28;20031;-51
2022/10/31 03:31:14;;;;;;;23.95;11.88;;;;;;;11.30;97.68;101964.81;5118158;28;20035;-48
2022/10/31 03:33:42;;;;;;;14.77;10.27;;;;;;;11.29;97.36;101950.66;5118527;28;20024;-47
2022/10/31 03:36:10;;;;;;;13.93;10.82;;;;;;;11.27;97.03;101949.91;5117878;28;20028;-51
2022/10/31 03:38:37;;;;;;;18.73;10.93;;;;;;;11.26;97.04;101966.81;5118038;28;20015;-49
2022/10/31 03:41:04;;;;;;;15.63;10.45;;;;;;;11.21;97.48;101962.72;5117661;28;20053;-51
2022/10/31 03:43:37;;;;;;;13.65;10.32;;;;;;;11.23;97.02;101961.66;5117928;28;20038;-51
2022/10/31 03:46:04;;;;;;;14.98;10.23;;;;;;;11.21;96.58;101960.06;5117901;28;20024;-48
2022/10/31 03:48:29;;;;;;;16.83;10.82;;;;;;;11.15;96.94;101950.66;5117143;28;20016;-50
2022/10/31 03:51:20;;;;;;;16.20;11.43;;;;;;;11.17;97.96;101948.75;5118209;28;20016;-49
2022/10/31 03:53:54;;;;;;;17.48;11.48;;;;;;;11.14;98.86;101938.31;5117688;28;20037;-48
2022/10/31 03:56:33;;;;;;;17.75;12.52;;;;;;;11.13;98.92;101947.25;5100169;28;20015;-49
2022/10/31 03:59:17;;;;;;;;;;;;;;;11.20;97.10;101950.38;5118202;28;20055;-49
2022/10/31 04:01:48;;;;;;;17.27;11.65;;;;;;;11.05;97.98;101947.69;5117528;28;19907;-47
2022/10/31 04:04:14;;;;;;;21.17;11.63;;;;;;;11.05;98.13;101947.69;5117604;28;20146;-47
2022/10/31 04:06:43;;;;;;;17.08;11.32;;;;;;;11.04;98.26;101950.44;5117782;28;20793;-48
2022/10/31 04:09:09;;;;;;;;;;;;;;;11.10;96.98;101948.25;5117882;28;20012;-48
2022/10/31 04:11:39;;;;;;;18.65;11.60;;;;;;;11.02;97.77;101953.19;5117767;28;19924;-50
2022/10/31 04:14:06;;;;;;;18.65;11.50;;;;;;;11.00;98.05;101956.91;5117383;28;20028;-51
2022/10/31 04:16:32;;;;;;;20.35;11.98;;;;;;;11.00;98.16;101962.22;5117320;28;20040;-49
2022/10/31 04:18:57;;;;;;;15.88;12.20;;;;;;;10.96;98.50;101958.91;5119973;28;20015;-49
2022/10/31 04:21:29;;;;;;;16.63;11.45;;;;;;;10.95;98.53;101954.53;5121407;28;20008;-50
2022/10/31 04:23:56;;;;;;;16.88;12.35;;;;;;;10.91;98.40;101953.00;5121021;28;20027;-48
2022/10/31 04:26:21;;;;;;;16.83;12.65;;;;;;;10.90;99.14;101949.47;5121213;28;20012;-48
2022/10/31 04:28:46;;;;;;;17.67;12.48;;;;;;;10.91;99.16;101961.84;5121308;28;20104;-48
2022/10/31 04:31:12;;;;;;;20.25;13.15;;;;;;;10.91;99.48;101958.34;5120818;28;20053;-48
2022/10/31 04:33:38;;;;;;;21.48;13.45;;;;;;;10.91;100.00;101961.84;5121297;28;20020;-49
2022/10/31 04:36:04;;;;;;;18.67;12.68;;;;;;;10.91;99.77;101961.84;5121037;28;20016;-50
2022/10/31 04:38:30;;;;;;;17.67;12.35;;;;;;;10.92;100.00;101954.69;5120798;28;20008;-50
2022/10/31 04:40:55;;;;;;;18.63;12.23;;;;;;;10.92;100.00;101960.03;5121297;28;20050;-49
2022/10/31 04:43:20;;;;;;;18.63;12.70;;;;;;;10.93;100.00;101957.28;5120994;28;20012;-48
2022/10/31 04:45:45;;;;;;;17.63;12.98;;;;;;;10.92;100.00;101957.38;5110841;28;20016;-49
2022/10/31 04:48:11;;;;;;;16.35;12.30;;;;;;;10.93;100.00;101953.78;5121192;28;20043;-47
2022/10/31 04:50:36;;;;;;;22.40;13.38;;;;;;;10.92;100.00;101952.94;5120569;28;20032;-50
2022/10/31 04:53:01;;;;;;;17.13;12.30;;;;;;;10.91;100.00;101953.00;5121098;28;20016;-48
2022/10/31 04:55:27;;;;;;;16.48;12.23;;;;;;;10.93;100.00;101953.78;5120628;28;20281;-49
2022/10/31 04:57:52;;;;;;;19.25;12.15;;;;;;;10.92;100.00;101963.56;5121104;28;20011;-51
2022/10/31 05:00:20;;;;;;;18.27;12.32;;;;;;;10.93;99.73;101954.63;5112529;28;20028;-48
2022/10/31 05:02:47;;;;;;;20.50;12.93;;;;;;;10.90;100.00;101953.94;5120970;28;20043;-48
2022/10/31 05:05:13;;;;;;;18.52;12.30;;;;;;;10.91;100.00;101947.69;5120499;28;20047;-47
2022/10/31 05:07:40;;;;;;;18.23;12.70;;;;;;;10.90;100.00;101949.47;5120627;28;20028;-46
2022/10/31 05:10:06;;;;;;;18.25;12.48;;;;;;;10.91;99.59;101945.03;5120128;28;20019;-49
2022/10/31 05:12:31;;;;;;;17.35;12.65;;;;;;;10.87;100.00;101944.34;5120846;28;20028;-51
2022/10/31 05:14:56;;;;;;;18.95;12.70;;;;;;;10.86;100.00;101947.97;5120548;28;20046;-52
2022/10/31 05:17:22;;;;;;;16.42;12.57;;;;;;;10.87;99.80;101943.50;5120601;28;20027;-49
2022/10/31 05:19:47;;;;;;;18.05;12.60;;;;;;;10.81;99.34;101947.38;5120065;28;20020;-47
2022/10/31 05:22:12;;;;;;;19.83;12.38;;;;;;;10.79;99.22;101938.66;5120630;28;20042;-49
2022/10/31 05:24:37;;;;;;;14.63;11.48;;;;;;;10.78;98.91;101946.72;5120711;28;20016;-48
2022/10/31 05:27:03;;;;;;;19.07;12.57;;;;;;;10.76;99.58;101944.16;5120221;28;20079;-49
2022/10/31 05:29:28;;;;;;;19.40;12.60;;;;;;;10.77;99.48;101937.03;5119353;28;20290;-48
2022/10/31 05:31:53;;;;;;;21.25;13.05;;;;;;;10.75;99.83;101934.47;5112339;28;20012;-52
2022/10/31 05:34:18;;;;;;;19.77;14.10;;;;;;;10.72;100.00;101934.63;5123776;28;20023;-48
2022/10/31 05:36:44;;;;;;;19.10;12.48;;;;;;;10.71;99.98;101932.94;5120192;28;20030;-49
2022/10/31 05:39:09;;;;;;;21.92;13.88;;;;;;;10.71;100.00;101935.59;5119470;28;20027;-49
2022/10/31 05:41:35;;;;;;;21.00;13.38;;;;;;;10.70;100.00;101928.56;5119784;28;20016;-49
2022/10/31 05:44:00;;;;;;;19.73;13.13;;;;;;;10.69;100.00;101921.53;5119772;28;20012;-50
2022/10/31 05:46:25;;;;;;;18.73;13.82;;;;;;;10.67;100.00;101928.75;5119621;28;20297;-49
2022/10/31 05:48:50;;;;;;;21.65;13.80;;;;;;;10.66;100.00;101924.41;5119362;28;20111;-48
2022/10/31 05:51:16;;;;;;;19.15;14.02;;;;;;;10.67;100.00;101921.63;5120109;28;20169;-48
2022/10/31 05:53:41;;;;;;;16.92;12.32;;;;;;;10.64;99.86;101920.97;5120857;28;20031;-48
2022/10/31 05:56:06;;;;;;;22.83;13.98;;;;;;;10.62;100.00;101921.03;5130637;28;20012;-51
2022/10/31 05:58:32;;;;;;;19.27;13.85;;;;;;;10.63;100.00;101916.59;5110525;28;20015;-51
2022/10/31 06:00:57;;;;;;;19.98;13.20;;;;;;;10.62;100.00;101912.22;5119919;28;20023;-49
2022/10/31 06:03:22;;;;;;;22.95;13.95;;;;;;;10.60;100.00;101907.00;5119022;28;20035;-47
2022/10/31 06:05:47;;;;;;;17.10;13.15;;;;;;;10.57;99.57;101907.19;5119696;28;20016;-48
2022/10/31 06:08:13;;;;;;;19.95;13.48;;;;;;;10.56;99.50;101905.50;5119647;28;20066;-51
2022/10/31 06:10:38;;;;;;;19.52;13.43;;;;;;;10.54;99.83;101902.94;5110374;28;20016;-49
2022/10/31 06:13:03;;;;;;;17.88;13.70;;;;;;;10.53;99.90;101903.88;5119349;28;20028;-49
2022/10/31 06:15:28;;;;;;;22.38;14.80;;;;;;;10.54;100.00;101904.69;5119461;28;20066;-48
2022/10/31 06:18:02;;;;;;;22.13;16.15;;;;;;;10.54;100.00;101907.34;5108713;28;20024;-48
2022/10/31 06:20:27;;;;;;;21.42;16.15;;;;;;;10.53;100.00;101901.22;5119416;28;20016;-50
2022/10/31 06:22:52;;;;;;;24.67;16.70;;;;;;;10.53;100.00;101908.31;5119164;28;20020;-49
2022/10/31 06:25:18;;;;;;;24.70;17.30;;;;;;;10.53;100.00;101903.88;5119039;28;20031;-50
2022/10/31 06:27:43;;;;;;;23.40;15.60;;;;;;;10.51;100.00;101905.75;5118550;28;20023;-50
2022/10/31 06:30:09;;;;;;;21.00;14.82;;;;;;;10.52;100.00;101909.25;5118657;28;20020;-48
2022/10/31 06:32:34;;;;;;;22.63;16.38;;;;;;;10.48;100.00;101910.41;5116382;28;20020;-48
2022/10/31 06:34:59;;;;;;;23.30;15.70;;;;;;;10.47;100.00;101909.53;5122611;28;20088;-48
2022/10/31 06:37:25;;;;;;;22.17;15.23;;;;;;;10.47;100.00;101912.19;5119492;28;20012;-51
2022/10/31 06:39:50;;;;;;;21.52;15.25;;;;;;;10.46;100.00;101921.13;5118496;28;20274;-48
2022/10/31 06:42:16;;;;;;;21.92;15.88;;;;;;;10.47;100.00;101920.16;5118742;28;20016;-50
2022/10/31 06:44:41;;;;;;;25.02;16.08;;;;;;;10.46;100.00;101915.81;5114494;28;20016;-47
2022/10/31 06:47:06;;;;;;;22.90;15.95;;;;;;;10.48;100.00;101913.06;5117062;28;20040;-48
2022/10/31 06:49:32;;;;;;;27.58;17.23;;;;;;;10.48;100.00;101913.06;5104834;28;20100;-48
2022/10/31 06:51:57;;;;;;;24.33;16.60;;;;;;;10.48;100.00;101913.91;5107374;28;20080;-48
2022/10/31 06:54:22;;;;;;;24.30;16.27;;;;;;;10.47;100.00;101912.19;5111657;28;20050;-49
2022/10/31 06:56:48;;;;;;;25.15;16.98;;;;;;;10.48;100.00;101913.91;5117580;28;20031;-48
2022/10/31 06:59:14;;;;;;;22.80;15.40;;;;;;;10.50;100.00;101911.16;5113247;28;20020;-49
2022/10/31 07:01:39;;;;;;;22.52;17.15;;;;;;;10.50;100.00;101914.66;5122285;28;20046;-50
2022/10/31 07:04:04;;;;;;;25.60;16.67;;;;;;;10.51;100.00;101918.19;5120789;28;20023;-48
2022/10/31 07:06:30;;;;;;;29.88;17.52;;;;;;;10.53;100.00;101911.81;5118260;28;20248;-51
2022/10/31 07:08:55;;;;;;;26.35;17.75;;;;;;;10.55;100.00;101909.94;5120334;28;20021;-49
2022/10/31 07:11:20;;;;;;;22.95;16.15;;;;;;;10.59;100.00;101912.41;5114208;28;20020;-50
2022/10/31 07:13:46;;;;;;;29.90;17.85;;;;;;;10.59;100.00;101909.75;5124854;28;20028;-50
2022/10/31 07:16:12;;;;;;;29.08;18.60;;;;;;;10.64;100.00;101913.88;5122433;28;20028;-51
2022/10/31 07:18:38;;;;;;;32.08;19.70;;;;;;;10.66;100.00;101911.97;5122873;28;20015;-49
2022/10/31 07:21:04;;;;;;;26.95;17.65;;;;;;;10.71;100.00;101912.53;5125264;28;20059;-50
2022/10/31 07:23:29;;;;;;;35.33;19.50;;;;;;;10.74;100.00;101917.66;5120603;28;20028;-48
2022/10/31 07:25:56;;;;;;;30.23;18.48;;;;;;;10.77;100.00;101916.63;5122835;28;20039;-49
2022/10/31 07:28:21;;;;;;;27.10;19.70;;;;;;;10.81;100.00;101918.16;5101544;28;20031;-49
2022/10/31 07:30:55;;;;;;;30.33;18.70;;;;;;;10.86;100.00;101921.38;5118112;28;20083;-49
2022/10/31 07:33:22;;;;;;;29.10;18.35;;;;;;;10.89;100.00;101926.53;5121608;28;20012;-48
2022/10/31 07:35:47;;;;;;;26.83;18.00;;;;;;;10.93;100.00;101920.06;5128544;28;20012;-49
2022/10/31 07:38:14;;;;;;;29.20;19.30;;;;;;;10.98;100.00;101930.41;5116777;28;20016;-48
2022/10/31 07:40:40;;;;;;;33.22;19.48;;;;;;;11.03;100.00;101932.81;5108221;28;20054;-48
2022/10/31 07:43:05;;;;;;;33.38;19.77;;;;;;;11.07;100.00;101927.22;5125927;28;20031;-50
2022/10/31 07:45:31;;;;;;;33.28;21.30;;;;;;;11.11;100.00;101927.88;5131795;28;20022;-48
2022/10/31 07:47:56;;;;;;;29.75;20.50;;;;;;;11.17;100.00;101922.16;5129219;28;20058;-49
2022/10/31 07:50:24;;;;;;;32.10;22.13;;;;;;;11.22;100.00;101920.06;5131456;28;20040;-47
2022/10/31 07:53:00;;;;;;;36.75;22.73;;;;;;;11.29;100.00;101920.53;5128750;28;20020;-48
2022/10/31 07:55:26;;;;;;;32.25;21.35;;;;;;;11.34;100.00;101929.09;5124358;28;20026;-50
2022/10/31 07:58:04;;;;;;;33.08;22.15;;;;;;;11.41;100.00;101921.59;5122997;28;20020;-52
2022/10/31 08:00:30;;;;;;;34.10;21.70;;;;;;;11.47;100.00;101923.84;5110119;28;20024;-50
2022/10/31 08:03:08;;;;;;;39.25;25.38;;;;;;;11.57;100.00;101932.09;5122488;28;20076;-50
2022/10/31 08:05:34;;;;;;;39.25;25.48;;;;;;;11.69;100.00;101930.47;5120588;28;20036;-48
2022/10/31 08:07:59;;;;;;;30.83;23.80;;;;;;;11.75;100.00;101936.25;5125938;28;20016;-49
2022/10/31 08:10:26;;;;;;;40.17;25.77;;;;;;;11.87;100.00;101928.44;5128801;28;20027;-49
2022/10/31 08:13:06;;;;;;;39.03;26.40;;;;;;;11.98;100.00;101939.28;5117723;28;20020;-49
2022/10/31 08:15:33;;;;;;;37.72;26.15;;;;;;;12.10;100.00;101935.81;5124998;28;20041;-47
2022/10/31 08:17:59;;;;;;;34.70;26.23;;;;;;;12.21;100.00;101930.63;5129729;28;20008;-52
2022/10/31 08:20:24;;;;;;;44.88;28.25;;;;;;;12.30;100.00;101920.31;5137364;28;20047;-47
2022/10/31 08:22:54;;;;;;;41.25;27.15;;;;;;;12.37;100.00;101913.63;5124882;28;20016;-48
2022/10/31 08:25:19;;;;;;;37.95;27.13;;;;;;;12.40;100.00;101916.94;5132295;28;20034;-47
2022/10/31 08:27:50;;;;;;;38.40;27.45;;;;;;;12.48;100.00;101923.56;5132100;28;20032;-48
2022/10/31 08:30:15;;;;;;;45.03;28.70;;;;;;;12.59;100.00;101937.03;5138904;28;20057;-50
2022/10/31 08:32:40;;;;;;;42.53;29.85;;;;;;;12.68;100.00;101925.72;5126739;28;20007;-50
2022/10/31 08:35:06;;;;;;;42.60;30.15;;;;;;;12.75;100.00;101913.69;5130046;28;20016;-49
2022/10/31 08:37:31;;;;;;;41.55;29.15;;;;;;;12.81;100.00;101907.09;5118832;28;20077;-50
2022/10/31 08:39:57;;;;;;;42.60;28.38;;;;;;;12.86;100.00;101896.94;5116861;28;20012;-49
2022/10/31 08:42:22;;;;;;;41.40;29.33;;;;;;;12.90;100.00;101879.75;5123553;28;20024;-47
2022/10/31 08:44:47;;;;;;;48.00;30.63;;;;;;;12.91;100.00;101861.97;5115759;28;20013;-52
2022/10/31 08:47:12;;;;;;;45.22;29.33;;;;;;;12.93;100.00;101871.56;5116017;28;20027;-50
2022/10/31 08:49:38;;;;;;;46.97;27.73;;;;;;;12.96;100.00;101873.16;5119808;28;20050;-48
2022/10/31 08:52:03;;;;;;;41.95;27.88;;;;;;;12.99;100.00;101859.63;5130450;28;20269;-49
2022/10/31 08:54:28;;;;;;;39.63;26.80;;;;;;;13.01;100.00;101886.19;5127202;28;20023;-49
2022/10/31 08:56:55;;;;;;;34.38;26.67;;;;;;;13.03;100.00;101897.59;5130921;28;20008;-48
2022/10/31 08:59:20;;;;;;;41.38;27.40;;;;;;;13.06;100.00;101892.88;5135670;28;20035;-50
2022/10/31 09:01:45;;;;;;;35.10;25.83;;;;;;;13.09;100.00;101895.34;5137980;28;20027;-49
2022/10/31 09:04:11;;;;;;;39.38;27.02;;;;;;;13.13;100.00;101885.31;5131353;28;20047;-50
2022/10/31 09:06:36;;;;;;;36.60;26.17;;;;;;;13.15;100.00;101883.38;5132300;28;20031;-50
2022/10/31 09:09:02;;;;;;;35.17;26.42;;;;;;;13.19;100.00;101887.56;5134513;28;20284;-48
2022/10/31 09:11:30;;;;;;;36.20;26.55;;;;;;;13.22;100.00;101883.78;5128152;28;20071;-48
2022/10/31 09:13:55;;;;;;;40.45;27.10;;;;;;;13.27;100.00;101884.31;5129685;28;20057;-48
2022/10/31 09:16:20;;;;;;;36.30;26.23;;;;;;;13.31;100.00;101896.50;5132482;28;20036;-49
2022/10/31 09:18:46;;;;;;;40.50;27.97;;;;;;;13.34;100.00;101898.97;5127649;28;20278;-49
2022/10/31 09:21:11;;;;;;;39.23;27.63;;;;;;;13.38;100.00;101883.59;5131987;28;20578;-50
2022/10/31 09:23:36;;;;;;;41.50;31.35;;;;;;;13.40;100.00;101869.16;5133067;28;20338;-50
2022/10/31 09:26:03;;;;;;;37.80;27.77;;;;;;;13.45;100.00;101853.66;5121094;28;20023;-48
2022/10/31 09:28:28;;;;;;;42.42;28.05;;;;;;;13.53;100.00;101844.28;5119832;28;20008;-46
2022/10/31 09:30:54;;;;;;;38.78;28.67;;;;;;;13.57;100.00;101837.72;5108356;28;20058;-48
2022/10/31 09:33:20;;;;;;;43.58;28.80;;;;;;;13.62;100.00;101835.56;5117652;28;20020;-49
2022/10/31 09:35:46;;;;;;;40.97;28.30;;;;;;;13.65;100.00;101830.84;5123007;28;20073;-49
2022/10/31 09:38:18;;;;;;;36.70;27.52;;;;;;;13.71;100.00;101810.03;5130075;28;20024;-49
2022/10/31 09:40:50;;;;;;;41.33;27.67;;;;;;;13.74;100.00;101817.78;5136091;28;20015;-51
2022/10/31 09:43:34;;;;;;;38.08;26.90;;;;;;;13.76;100.00;101823.88;5127925;28;20012;-49
2022/10/31 09:46:30;;;;;;;41.08;28.00;;;;;;;13.79;100.00;101839.66;5135344;28;20058;-50
2022/10/31 09:49:14;;;;;;;43.75;28.08;;;;;;;13.81;100.00;101843.94;5132727;28;20048;-49
2022/10/31 09:51:48;;;;;;;42.05;29.10;;;;;;;13.84;100.00;101833.03;5125797;28;20117;-49
2022/10/31 09:54:19;;;;;;;51.88;28.13;;;;;;;13.86;100.00;101828.41;5135633;28;20015;-48
2022/10/31 09:56:44;;;;;;;42.70;29.13;;;;;;;13.89;100.00;101814.00;5134710;28;20008;-48
2022/10/31 09:59:33;;;;;;;37.08;27.80;;;;;;;13.93;100.00;101825.28;5134425;28;20047;-48
2022/10/31 10:02:25;;;;;;;41.85;29.60;;;;;;;13.95;100.00;101826.03;5129429;28;20008;-50
2022/10/31 10:05:03;;;;;;;42.95;29.35;;;;;;;13.97;100.00;101802.72;5133052;28;20023;-49
2022/10/31 10:07:52;;;;;;;46.40;29.37;;;;;;;14.03;100.00;101788.91;5135421;28;20035;-49
2022/10/31 10:10:28;;;;;;;46.67;31.88;;;;;;;14.11;100.00;101785.66;5130308;28;20277;-49
2022/10/31 10:12:59;;;;;;;40.75;29.23;;;;;;;14.19;100.00;101792.09;5134624;28;20032;-50
2022/10/31 10:15:40;;;;;;;41.28;28.95;;;;;;;14.28;100.00;101790.53;5134954;28;20034;-48
2022/10/31 10:18:31;;;;;;;44.65;29.48;;;;;;;14.33;100.00;101791.03;5132533;28;20012;-51
2022/10/31 10:21:16;;;;;;;40.25;29.65;;;;;;;14.37;100.00;101792.50;5123307;28;20019;-48
2022/10/31 10:23:57;;;;;;;40.83;26.92;;;;;;;14.40;100.00;101772.69;5110368;28;20012;-50
2022/10/31 10:26:30;;;;;;;46.78;28.73;;;;;;;14.40;100.00;101759.31;5118826;28;20020;-50
2022/10/31 10:29:01;;;;;;;42.78;29.52;;;;;;;14.48;100.00;101753.41;5118634;28;20038;-52
2022/10/31 10:31:37;;;;;;;48.17;30.70;;;;;;;14.51;100.00;101754.00;5118777;28;20004;-50
2022/10/31 10:34:14;;;;;;;48.58;30.45;;;;;;;14.55;100.00;101762.63;5118486;28;20031;-48
2022/10/31 10:36:44;;;;;;;52.47;31.48;;;;;;;14.58;100.00;101770.41;5118561;28;20023;-52
2022/10/31 10:39:21;;;;;;;43.83;30.73;;;;;;;14.63;100.00;101775.44;5118251;28;20036;-49
2022/10/31 10:47:40;;;;;;;49.95;32.03;;;;;;;14.74;100.00;101778.94;5103520;28;20026;-52
2022/10/31 10:50:09;;;;;;;48.35;30.92;;;;;;;14.79;100.00;101774.09;5118182;28;20040;-51
2022/10/31 10:52:50;;;;;;;45.80;30.35;;;;;;;14.87;100.00;101761.91;5118266;28;20016;-48
2022/10/31 10:55:37;;;;;;;51.78;31.85;;;;;;;14.90;100.00;101756.31;5131222;28;20030;-51
2022/10/31 10:58:11;;;;;;;46.10;31.13;;;;;;;14.97;100.00;101752.16;5110432;28;20024;-49
2022/10/31 11:00:49;;;;;;;46.78;32.33;;;;;;;15.01;100.00;101753.63;5118146;28;20340;-49
2022/10/31 11:03:15;;;;;;;46.63;31.05;;;;;;;15.04;100.00;101757.88;5114280;28;20016;-48
2022/10/31 11:05:47;;;;;;;48.08;31.52;;;;;;;15.07;100.00;101754.94;5117437;28;20016;-50
2022/10/31 11:08:24;;;;;;;48.92;31.63;;;;;;;15.11;100.00;101757.25;5111790;28;20012;-49
2022/10/31 11:11:16;;;;;;;49.55;31.33;;;;;;;15.18;100.00;101752.25;5118191;28;20008;-50
2022/10/31 11:13:43;;;;;;;48.15;31.75;;;;;;;15.22;100.00;101750.16;5090470;28;20034;-49
2022/10/31 11:16:29;;;;;;;47.90;32.88;;;;;;;15.30;100.00;101742.38;5118014;28;20027;-50
2022/10/31 11:19:07;;;;;;;45.95;32.72;;;;;;;15.34;100.00;101725.94;5120190;28;20024;-50
2022/10/31 11:21:34;;;;;;;53.70;34.00;;;;;;;15.40;100.00;101716.53;5119598;28;20020;-50